sensor_id;sensor_type;location;lat;lon;timestamp;temperature;humidity
6333;DHT22;3199;49.102;8.856;2022-07-22T00:02:13;19.80;99.90
6333;DHT22;3199;49.102;8.856;2022-07-22T00:04:39;19.70;99.90
6333;DHT22;3199;49.102;8.856;2022-07-22T00:07:05;19.80;99.90
6333;DHT22;3199;49.102;8.856;2022-07-22T00:09:30;19.80;99.90
6333;DHT22;3199;49.102;8.856;2022-07-22T00:11:56;19.70;99.90
6333;DHT22;3199;49.102;8.856;2022-07-22T00:14:21;19.60;99.90
6333;DHT22;3199;49.102;8.856;2022-07-22T00:16:47;19.60;99.90
6333;DHT22;3199;49.102;8.856;2022-07-22T00:19:12;19.60;99.90
6333;DHT22;3199;49.102;8.856;2022-07-22T00:21:38;19.50;99.90
6333;DHT22;3199;49.102;8.856;2022-07-22T00:24:04;19.40;99.90
6333;DHT22;3199;49.102;8.856;2022-07-22T00:26:30;19.40;99.90
6333;DHT22;3199;49.102;8.856;2022-07-22T00:28:55;19.40;99.90
6333;DHT22;3199;49.102;8.856;2022-07-22T00:31:21;19.40;99.90
6333;DHT22;3199;49.102;8.856;2022-07-22T00:33:46;19.30;99.90
6333;DHT22;3199;49.102;8.856;2022-07-22T00:36:12;19.30;99.90
6333;DHT22;3199;49.102;8.856;2022-07-22T00:38:38;19.30;99.90
6333;DHT22;3199;49.102;8.856;2022-07-22T00:41:04;19.30;99.90
6333;DHT22;3199;49.102;8.856;2022-07-22T00:44:01;19.30;99.90
6333;DHT22;3199;49.102;8.856;2022-07-22T00:46:30;19.30;99.90
6333;DHT22;3199;49.102;8.856;2022-07-22T00:48:56;19.30;99.90
6333;DHT22;3199;49.102;8.856;2022-07-22T00:51:23;19.20;99.90
6333;DHT22;3199;49.102;8.856;2022-07-22T00:53:49;19.20;99.90
6333;DHT22;3199;49.102;8.856;2022-07-22T00:56:15;19.10;99.90
6333;DHT22;3199;49.102;8.856;2022-07-22T00:58:42;19.10;99.90
6333;DHT22;3199;49.102;8.856;2022-07-22T01:01:08;19.10;99.90
6333;DHT22;3199;49.102;8.856;2022-07-22T01:03:35;19.10;99.90
6333;DHT22;3199;49.102;8.856;2022-07-22T01:06:01;19.00;99.90
6333;DHT22;3199;49.102;8.856;2022-07-22T01:08:26;19.00;99.90
6333;DHT22;3199;49.102;8.856;2022-07-22T01:10:52;18.90;99.90
6333;DHT22;3199;49.102;8.856;2022-07-22T01:13:17;18.90;99.90
6333;DHT22;3199;49.102;8.856;2022-07-22T01:15:43;18.90;99.90
6333;DHT22;3199;49.102;8.856;2022-07-22T01:18:09;18.80;99.90
6333;DHT22;3199;49.102;8.856;2022-07-22T01:20:35;18.80;99.90
6333;DHT22;3199;49.102;8.856;2022-07-22T01:23:01;18.80;99.90
6333;DHT22;3199;49.102;8.856;2022-07-22T01:25:27;18.70;99.90
6333;DHT22;3199;49.102;8.856;2022-07-22T01:27:53;18.70;99.90
6333;DHT22;3199;49.102;8.856;2022-07-22T01:30:19;18.70;99.90
6333;DHT22;3199;49.102;8.856;2022-07-22T01:32:44;18.70;99.90
6333;DHT22;3199;49.102;8.856;2022-07-22T01:35:10;18.60;99.90
6333;DHT22;3199;49.102;8.856;2022-07-22T01:37:35;18.60;99.90
6333;DHT22;3199;49.102;8.856;2022-07-22T01:40:01;18.50;99.90
6333;DHT22;3199;49.102;8.856;2022-07-22T01:42:27;18.50;99.90
6333;DHT22;3199;49.102;8.856;2022-07-22T01:44:53;18.50;99.90
6333;DHT22;3199;49.102;8.856;2022-07-22T01:47:18;18.50;99.90
6333;DHT22;3199;49.102;8.856;2022-07-22T01:49:44;18.50;99.90
6333;DHT22;3199;49.102;8.856;2022-07-22T01:52:09;18.50;99.90
6333;DHT22;3199;49.102;8.856;2022-07-22T01:54:35;18.50;99.90
6333;DHT22;3199;49.102;8.856;2022-07-22T01:57:01;18.40;99.90
6333;DHT22;3199;49.102;8.856;2022-07-22T01:59:27;18.40;99.90
6333;DHT22;3199;49.102;8.856;2022-07-22T02:01:52;18.40;99.90
6333;DHT22;3199;49.102;8.856;2022-07-22T02:04:18;18.40;99.90
6333;DHT22;3199;49.102;8.856;2022-07-22T02:06:43;18.40;99.90
6333;DHT22;3199;49.102;8.856;2022-07-22T02:09:09;18.40;99.90
6333;DHT22;3199;49.102;8.856;2022-07-22T02:11:34;18.40;99.90
6333;DHT22;3199;49.102;8.856;2022-07-22T02:14:00;18.50;99.90
6333;DHT22;3199;49.102;8.856;2022-07-22T02:16:25;18.50;99.90
6333;DHT22;3199;49.102;8.856;2022-07-22T02:18:51;18.40;99.90
6333;DHT22;3199;49.102;8.856;2022-07-22T02:21:17;18.50;99.90
6333;DHT22;3199;49.102;8.856;2022-07-22T02:23:43;18.40;99.90
6333;DHT22;3199;49.102;8.856;2022-07-22T02:26:09;18.50;99.90
6333;DHT22;3199;49.102;8.856;2022-07-22T02:28:35;18.50;99.90
6333;DHT22;3199;49.102;8.856;2022-07-22T02:31:00;18.40;99.90
6333;DHT22;3199;49.102;8.856;2022-07-22T02:33:26;18.40;99.90
6333;DHT22;3199;49.102;8.856;2022-07-22T02:35:51;18.30;99.90
6333;DHT22;3199;49.102;8.856;2022-07-22T02:38:18;18.30;99.90
6333;DHT22;3199;49.102;8.856;2022-07-22T02:40:43;18.30;99.90
6333;DHT22;3199;49.102;8.856;2022-07-22T02:43:09;18.30;99.90
6333;DHT22;3199;49.102;8.856;2022-07-22T02:45:34;18.30;99.90
6333;DHT22;3199;49.102;8.856;2022-07-22T02:48:00;18.30;99.90
6333;DHT22;3199;49.102;8.856;2022-07-22T02:50:26;18.30;99.90
6333;DHT22;3199;49.102;8.856;2022-07-22T02:52:52;18.20;99.90
6333;DHT22;3199;49.102;8.856;2022-07-22T02:55:18;18.30;99.90
6333;DHT22;3199;49.102;8.856;2022-07-22T02:57:44;18.20;99.90
6333;DHT22;3199;49.102;8.856;2022-07-22T03:00:11;18.20;99.90
6333;DHT22;3199;49.102;8.856;2022-07-22T03:02:38;18.20;99.90
6333;DHT22;3199;49.102;8.856;2022-07-22T03:05:04;18.20;99.90
6333;DHT22;3199;49.102;8.856;2022-07-22T03:07:30;18.20;99.90
6333;DHT22;3199;49.102;8.856;2022-07-22T03:09:56;18.20;99.90
6333;DHT22;3199;49.102;8.856;2022-07-22T03:12:22;18.10;99.90
6333;DHT22;3199;49.102;8.856;2022-07-22T03:14:47;18.10;99.90
6333;DHT22;3199;49.102;8.856;2022-07-22T03:17:13;18.10;99.90
6333;DHT22;3199;49.102;8.856;2022-07-22T03:19:38;18.10;99.90
6333;DHT22;3199;49.102;8.856;2022-07-22T03:22:04;18.10;99.90
6333;DHT22;3199;49.102;8.856;2022-07-22T03:24:29;18.00;99.90
6333;DHT22;3199;49.102;8.856;2022-07-22T03:26:55;17.90;99.90
6333;DHT22;3199;49.102;8.856;2022-07-22T03:29:20;17.90;99.90
6333;DHT22;3199;49.102;8.856;2022-07-22T03:31:46;17.90;99.90
6333;DHT22;3199;49.102;8.856;2022-07-22T03:34:11;17.90;99.90
6333;DHT22;3199;49.102;8.856;2022-07-22T03:36:37;17.90;99.90
6333;DHT22;3199;49.102;8.856;2022-07-22T03:39:03;17.90;99.90
6333;DHT22;3199;49.102;8.856;2022-07-22T03:41:29;17.80;99.90
6333;DHT22;3199;49.102;8.856;2022-07-22T03:43:54;17.80;99.90
6333;DHT22;3199;49.102;8.856;2022-07-22T03:46:20;17.80;99.90
6333;DHT22;3199;49.102;8.856;2022-07-22T03:48:45;17.80;99.90
6333;DHT22;3199;49.102;8.856;2022-07-22T03:51:11;17.80;99.90
6333;DHT22;3199;49.102;8.856;2022-07-22T03:53:36;17.80;99.90
6333;DHT22;3199;49.102;8.856;2022-07-22T03:56:02;17.80;99.90
6333;DHT22;3199;49.102;8.856;2022-07-22T03:58:28;17.70;99.90
6333;DHT22;3199;49.102;8.856;2022-07-22T04:00:54;17.70;99.90
6333;DHT22;3199;49.102;8.856;2022-07-22T04:03:21;17.80;99.90
6333;DHT22;3199;49.102;8.856;2022-07-22T04:05:46;17.80;99.90
6333;DHT22;3199;49.102;8.856;2022-07-22T04:08:12;17.80;99.90
6333;DHT22;3199;49.102;8.856;2022-07-22T04:10:38;17.70;99.90
6333;DHT22;3199;49.102;8.856;2022-07-22T04:13:04;17.70;99.90
6333;DHT22;3199;49.102;8.856;2022-07-22T04:15:30;17.80;99.90
6333;DHT22;3199;49.102;8.856;2022-07-22T04:17:55;17.80;99.90
6333;DHT22;3199;49.102;8.856;2022-07-22T04:20:21;17.80;99.90
6333;DHT22;3199;49.102;8.856;2022-07-22T04:22:47;17.80;99.90
6333;DHT22;3199;49.102;8.856;2022-07-22T04:25:12;17.90;99.90
6333;DHT22;3199;49.102;8.856;2022-07-22T04:27:38;17.90;99.90
6333;DHT22;3199;49.102;8.856;2022-07-22T04:30:04;18.00;99.90
6333;DHT22;3199;49.102;8.856;2022-07-22T04:32:30;18.10;99.90
6333;DHT22;3199;49.102;8.856;2022-07-22T04:34:55;18.10;99.90
6333;DHT22;3199;49.102;8.856;2022-07-22T04:37:21;18.20;99.90
6333;DHT22;3199;49.102;8.856;2022-07-22T04:39:46;18.30;99.90
6333;DHT22;3199;49.102;8.856;2022-07-22T04:42:12;18.40;99.90
6333;DHT22;3199;49.102;8.856;2022-07-22T04:44:37;18.60;99.90
6333;DHT22;3199;49.102;8.856;2022-07-22T04:47:03;18.80;99.90
6333;DHT22;3199;49.102;8.856;2022-07-22T04:49:28;19.10;99.90
6333;DHT22;3199;49.102;8.856;2022-07-22T04:51:54;19.40;99.90
6333;DHT22;3199;49.102;8.856;2022-07-22T04:54:19;19.70;99.90
6333;DHT22;3199;49.102;8.856;2022-07-22T04:56:45;20.00;99.90
6333;DHT22;3199;49.102;8.856;2022-07-22T04:59:10;20.30;99.90
6333;DHT22;3199;49.102;8.856;2022-07-22T05:01:36;20.70;99.90
6333;DHT22;3199;49.102;8.856;2022-07-22T05:04:02;21.00;99.90
6333;DHT22;3199;49.102;8.856;2022-07-22T05:06:28;21.40;99.90
6333;DHT22;3199;49.102;8.856;2022-07-22T05:08:53;21.70;99.90
6333;DHT22;3199;49.102;8.856;2022-07-22T05:11:19;22.10;99.90
6333;DHT22;3199;49.102;8.856;2022-07-22T05:13:44;22.50;99.90
6333;DHT22;3199;49.102;8.856;2022-07-22T05:16:10;22.80;99.90
6333;DHT22;3199;49.102;8.856;2022-07-22T05:18:35;23.20;99.90
6333;DHT22;3199;49.102;8.856;2022-07-22T05:21:02;23.50;99.90
6333;DHT22;3199;49.102;8.856;2022-07-22T05:23:28;23.90;99.90
6333;DHT22;3199;49.102;8.856;2022-07-22T05:25:53;24.30;99.90
6333;DHT22;3199;49.102;8.856;2022-07-22T05:28:19;24.70;99.90
6333;DHT22;3199;49.102;8.856;2022-07-22T05:30:45;25.10;99.90
6333;DHT22;3199;49.102;8.856;2022-07-22T05:33:10;25.50;99.80
6333;DHT22;3199;49.102;8.856;2022-07-22T05:35:36;25.80;99.00
6333;DHT22;3199;49.102;8.856;2022-07-22T05:38:02;26.10;98.30
6333;DHT22;3199;49.102;8.856;2022-07-22T05:40:28;26.40;97.70
6333;DHT22;3199;49.102;8.856;2022-07-22T05:42:54;26.60;97.00
6333;DHT22;3199;49.102;8.856;2022-07-22T05:45:20;26.80;96.40
6333;DHT22;3199;49.102;8.856;2022-07-22T05:47:45;27.00;95.90
6333;DHT22;3199;49.102;8.856;2022-07-22T05:50:11;27.20;95.70
6333;DHT22;3199;49.102;8.856;2022-07-22T05:52:37;27.40;94.70
6333;DHT22;3199;49.102;8.856;2022-07-22T05:55:04;27.50;94.30
6333;DHT22;3199;49.102;8.856;2022-07-22T05:57:30;27.60;93.70
6333;DHT22;3199;49.102;8.856;2022-07-22T05:59:55;27.60;93.20
6333;DHT22;3199;49.102;8.856;2022-07-22T06:02:21;27.70;92.90
6333;DHT22;3199;49.102;8.856;2022-07-22T06:04:46;27.90;92.60
6333;DHT22;3199;49.102;8.856;2022-07-22T06:07:12;28.10;92.20
6333;DHT22;3199;49.102;8.856;2022-07-22T06:09:37;28.50;91.50
6333;DHT22;3199;49.102;8.856;2022-07-22T06:12:03;28.90;90.80
6333;DHT22;3199;49.102;8.856;2022-07-22T06:14:29;29.40;89.60
6333;DHT22;3199;49.102;8.856;2022-07-22T06:16:54;29.80;87.80
6333;DHT22;3199;49.102;8.856;2022-07-22T06:19:20;30.30;85.10
6333;DHT22;3199;49.102;8.856;2022-07-22T06:21:45;30.30;83.00
6333;DHT22;3199;49.102;8.856;2022-07-22T06:24:11;30.40;81.30
6333;DHT22;3199;49.102;8.856;2022-07-22T06:26:36;30.40;80.10
6333;DHT22;3199;49.102;8.856;2022-07-22T06:29:02;30.50;79.70
6333;DHT22;3199;49.102;8.856;2022-07-22T06:31:28;30.60;78.80
6333;DHT22;3199;49.102;8.856;2022-07-22T06:33:53;30.50;78.40
6333;DHT22;3199;49.102;8.856;2022-07-22T06:36:19;30.60;78.20
6333;DHT22;3199;49.102;8.856;2022-07-22T06:38:44;30.80;77.60
6333;DHT22;3199;49.102;8.856;2022-07-22T06:41:10;31.00;76.80
6333;DHT22;3199;49.102;8.856;2022-07-22T06:43:36;31.40;75.10
6333;DHT22;3199;49.102;8.856;2022-07-22T06:46:01;31.40;73.80
6333;DHT22;3199;49.102;8.856;2022-07-22T06:48:27;31.50;73.70
6333;DHT22;3199;49.102;8.856;2022-07-22T06:50:53;31.80;72.20
6333;DHT22;3199;49.102;8.856;2022-07-22T06:53:18;32.00;70.20
6333;DHT22;3199;49.102;8.856;2022-07-22T06:55:44;32.00;69.80
6333;DHT22;3199;49.102;8.856;2022-07-22T06:58:09;32.10;69.30
6333;DHT22;3199;49.102;8.856;2022-07-22T07:00:35;32.30;68.90
6333;DHT22;3199;49.102;8.856;2022-07-22T07:03:00;32.70;68.10
6333;DHT22;3199;49.102;8.856;2022-07-22T07:05:26;33.30;66.60
6333;DHT22;3199;49.102;8.856;2022-07-22T07:07:54;33.50;64.20
6333;DHT22;3199;49.102;8.856;2022-07-22T07:10:20;33.60;63.70
6333;DHT22;3199;49.102;8.856;2022-07-22T07:12:45;33.70;63.30
6333;DHT22;3199;49.102;8.856;2022-07-22T07:15:11;33.70;61.90
6333;DHT22;3199;49.102;8.856;2022-07-22T07:17:37;33.80;62.10
6333;DHT22;3199;49.102;8.856;2022-07-22T07:20:04;33.80;62.00
6333;DHT22;3199;49.102;8.856;2022-07-22T07:22:30;34.00;60.80
6333;DHT22;3199;49.102;8.856;2022-07-22T07:24:55;34.20;61.20
6333;DHT22;3199;49.102;8.856;2022-07-22T07:27:21;34.50;60.20
6333;DHT22;3199;49.102;8.856;2022-07-22T07:29:46;34.50;59.10
6333;DHT22;3199;49.102;8.856;2022-07-22T07:32:12;34.60;59.20
6333;DHT22;3199;49.102;8.856;2022-07-22T07:34:37;34.60;58.90
6333;DHT22;3199;49.102;8.856;2022-07-22T07:37:04;34.70;57.90
6333;DHT22;3199;49.102;8.856;2022-07-22T07:39:29;34.80;58.10
6333;DHT22;3199;49.102;8.856;2022-07-22T07:41:55;35.00;58.30
6333;DHT22;3199;49.102;8.856;2022-07-22T07:44:20;35.00;57.10
6333;DHT22;3199;49.102;8.856;2022-07-22T07:46:46;34.90;57.70
6333;DHT22;3199;49.102;8.856;2022-07-22T07:49:11;34.90;56.90
6333;DHT22;3199;49.102;8.856;2022-07-22T07:51:37;35.00;56.80
6333;DHT22;3199;49.102;8.856;2022-07-22T07:54:02;35.20;56.30
6333;DHT22;3199;49.102;8.856;2022-07-22T07:56:28;35.30;56.50
6333;DHT22;3199;49.102;8.856;2022-07-22T07:58:54;35.30;55.00
6333;DHT22;3199;49.102;8.856;2022-07-22T08:01:19;35.20;55.60
6333;DHT22;3199;49.102;8.856;2022-07-22T08:03:45;35.20;55.10
6333;DHT22;3199;49.102;8.856;2022-07-22T08:06:11;34.90;55.10
6333;DHT22;3199;49.102;8.856;2022-07-22T08:08:36;34.90;55.30
6333;DHT22;3199;49.102;8.856;2022-07-22T08:11:02;34.90;55.50
6333;DHT22;3199;49.102;8.856;2022-07-22T08:13:28;34.80;54.80
6333;DHT22;3199;49.102;8.856;2022-07-22T08:15:54;34.50;54.60
6333;DHT22;3199;49.102;8.856;2022-07-22T08:18:19;34.30;55.30
6333;DHT22;3199;49.102;8.856;2022-07-22T08:20:45;34.10;56.00
6333;DHT22;3199;49.102;8.856;2022-07-22T08:23:10;33.70;56.20
6333;DHT22;3199;49.102;8.856;2022-07-22T08:25:36;33.40;57.90
6333;DHT22;3199;49.102;8.856;2022-07-22T08:28:02;33.10;57.70
6333;DHT22;3199;49.102;8.856;2022-07-22T08:30:27;33.20;57.50
6333;DHT22;3199;49.102;8.856;2022-07-22T08:32:54;33.10;58.00
6333;DHT22;3199;49.102;8.856;2022-07-22T08:35:20;33.00;58.20
6333;DHT22;3199;49.102;8.856;2022-07-22T08:37:46;32.90;58.20
6333;DHT22;3199;49.102;8.856;2022-07-22T08:40:13;33.10;58.70
6333;DHT22;3199;49.102;8.856;2022-07-22T08:42:40;33.40;59.20
6333;DHT22;3199;49.102;8.856;2022-07-22T08:45:07;33.70;57.50
6333;DHT22;3199;49.102;8.856;2022-07-22T08:47:33;33.90;57.20
6333;DHT22;3199;49.102;8.856;2022-07-22T08:49:59;34.00;57.50
6333;DHT22;3199;49.102;8.856;2022-07-22T08:52:25;34.20;57.50
6333;DHT22;3199;49.102;8.856;2022-07-22T08:54:50;34.50;56.20
6333;DHT22;3199;49.102;8.856;2022-07-22T08:57:17;34.30;55.90
6333;DHT22;3199;49.102;8.856;2022-07-22T08:59:56;34.20;56.90
6333;DHT22;3199;49.102;8.856;2022-07-22T09:02:22;34.30;57.00
6333;DHT22;3199;49.102;8.856;2022-07-22T09:04:57;34.50;56.80
6333;DHT22;3199;49.102;8.856;2022-07-22T09:09:53;34.60;56.00
6333;DHT22;3199;49.102;8.856;2022-07-22T09:12:21;34.70;56.10
6333;DHT22;3199;49.102;8.856;2022-07-22T09:14:49;34.80;56.30
6333;DHT22;3199;49.102;8.856;2022-07-22T09:19:58;35.20;55.70
6333;DHT22;3199;49.102;8.856;2022-07-22T09:22:43;35.10;54.80
6333;DHT22;3199;49.102;8.856;2022-07-22T09:25:31;35.10;55.50
6333;DHT22;3199;49.102;8.856;2022-07-22T09:28:21;34.90;54.90
6333;DHT22;3199;49.102;8.856;2022-07-22T09:30:52;34.70;55.30
6333;DHT22;3199;49.102;8.856;2022-07-22T09:33:19;34.60;57.30
6333;DHT22;3199;49.102;8.856;2022-07-22T09:35:46;34.70;54.40
6333;DHT22;3199;49.102;8.856;2022-07-22T09:38:12;34.60;55.70
6333;DHT22;3199;49.102;8.856;2022-07-22T09:40:43;34.20;55.50
6333;DHT22;3199;49.102;8.856;2022-07-22T09:43:11;34.10;55.80
6333;DHT22;3199;49.102;8.856;2022-07-22T09:45:52;34.10;55.90
6333;DHT22;3199;49.102;8.856;2022-07-22T09:48:25;34.30;56.50
6333;DHT22;3199;49.102;8.856;2022-07-22T09:50:52;34.50;57.00
6333;DHT22;3199;49.102;8.856;2022-07-22T09:53:20;34.50;55.40
6333;DHT22;3199;49.102;8.856;2022-07-22T09:55:46;34.60;56.90
6333;DHT22;3199;49.102;8.856;2022-07-22T09:58:12;34.90;55.50
6333;DHT22;3199;49.102;8.856;2022-07-22T10:00:38;35.20;55.10
6333;DHT22;3199;49.102;8.856;2022-07-22T10:03:06;35.50;54.80
6333;DHT22;3199;49.102;8.856;2022-07-22T10:05:35;35.20;52.80
6333;DHT22;3199;49.102;8.856;2022-07-22T10:08:03;34.90;53.20
6333;DHT22;3199;49.102;8.856;2022-07-22T10:10:30;34.80;54.10
6333;DHT22;3199;49.102;8.856;2022-07-22T10:12:58;34.80;54.40
6333;DHT22;3199;49.102;8.856;2022-07-22T10:15:26;34.70;54.60
6333;DHT22;3199;49.102;8.856;2022-07-22T10:17:57;34.50;54.10
6333;DHT22;3199;49.102;8.856;2022-07-22T10:20:26;34.40;54.40
6333;DHT22;3199;49.102;8.856;2022-07-22T10:23:13;34.20;54.80
6333;DHT22;3199;49.102;8.856;2022-07-22T10:25:52;34.00;54.50
6333;DHT22;3199;49.102;8.856;2022-07-22T10:30:49;34.20;56.10
6333;DHT22;3199;49.102;8.856;2022-07-22T10:33:16;34.60;55.70
6333;DHT22;3199;49.102;8.856;2022-07-22T10:38:09;34.80;54.50
6333;DHT22;3199;49.102;8.856;2022-07-22T10:40:49;34.90;55.80
6333;DHT22;3199;49.102;8.856;2022-07-22T10:43:23;34.90;54.00
6333;DHT22;3199;49.102;8.856;2022-07-22T10:45:56;34.90;53.80
6333;DHT22;3199;49.102;8.856;2022-07-22T10:51:09;34.60;54.10
6333;DHT22;3199;49.102;8.856;2022-07-22T10:53:39;34.50;54.40
6333;DHT22;3199;49.102;8.856;2022-07-22T11:01:05;34.30;54.90
6333;DHT22;3199;49.102;8.856;2022-07-22T11:03:33;34.50;53.70
6333;DHT22;3199;49.102;8.856;2022-07-22T11:06:23;34.60;54.50
6333;DHT22;3199;49.102;8.856;2022-07-22T11:08:52;34.70;53.90
6333;DHT22;3199;49.102;8.856;2022-07-22T11:11:18;34.80;54.20
6333;DHT22;3199;49.102;8.856;2022-07-22T11:13:44;35.00;53.30
6333;DHT22;3199;49.102;8.856;2022-07-22T11:16:22;35.00;53.70
6333;DHT22;3199;49.102;8.856;2022-07-22T11:19:01;35.20;52.30
6333;DHT22;3199;49.102;8.856;2022-07-22T11:21:32;35.20;51.90
6333;DHT22;3199;49.102;8.856;2022-07-22T11:23:59;35.30;51.90
6333;DHT22;3199;49.102;8.856;2022-07-22T11:26:44;35.50;51.80
6333;DHT22;3199;49.102;8.856;2022-07-22T11:29:10;35.30;51.90
6333;DHT22;3199;49.102;8.856;2022-07-22T11:31:40;35.00;52.00
6333;DHT22;3199;49.102;8.856;2022-07-22T11:34:13;34.90;52.40
6333;DHT22;3199;49.102;8.856;2022-07-22T11:36:41;34.70;52.60
6333;DHT22;3199;49.102;8.856;2022-07-22T11:39:08;34.50;52.60
6333;DHT22;3199;49.102;8.856;2022-07-22T11:41:34;34.50;52.60
6333;DHT22;3199;49.102;8.856;2022-07-22T11:44:01;34.50;52.80
6333;DHT22;3199;49.102;8.856;2022-07-22T11:46:27;34.60;52.70
6333;DHT22;3199;49.102;8.856;2022-07-22T11:48:54;34.70;52.50
6333;DHT22;3199;49.102;8.856;2022-07-22T11:51:28;34.70;52.30
6333;DHT22;3199;49.102;8.856;2022-07-22T11:53:54;34.80;52.00
6333;DHT22;3199;49.102;8.856;2022-07-22T11:56:20;34.90;51.80
6333;DHT22;3199;49.102;8.856;2022-07-22T11:58:47;34.90;51.20
6333;DHT22;3199;49.102;8.856;2022-07-22T12:01:15;34.80;51.70
6333;DHT22;3199;49.102;8.856;2022-07-22T12:03:46;34.60;52.10
6333;DHT22;3199;49.102;8.856;2022-07-22T12:06:13;34.40;52.50
6333;DHT22;3199;49.102;8.856;2022-07-22T12:08:44;34.30;53.10
6333;DHT22;3199;49.102;8.856;2022-07-22T12:11:11;34.30;51.70
6333;DHT22;3199;49.102;8.856;2022-07-22T12:13:46;34.40;53.40
6333;DHT22;3199;49.102;8.856;2022-07-22T12:16:23;34.50;51.60
6333;DHT22;3199;49.102;8.856;2022-07-22T12:21:20;34.50;51.20
6333;DHT22;3199;49.102;8.856;2022-07-22T12:23:55;34.40;51.30
6333;DHT22;3199;49.102;8.856;2022-07-22T12:26:40;34.40;51.90
6333;DHT22;3199;49.102;8.856;2022-07-22T12:29:27;34.50;52.30
6333;DHT22;3199;49.102;8.856;2022-07-22T12:32:00;34.60;51.30
6333;DHT22;3199;49.102;8.856;2022-07-22T12:34:39;34.80;51.70
6333;DHT22;3199;49.102;8.856;2022-07-22T12:37:32;34.80;50.00
6333;DHT22;3199;49.102;8.856;2022-07-22T12:40:20;34.70;50.90
6333;DHT22;3199;49.102;8.856;2022-07-22T12:43:07;34.50;50.40
6333;DHT22;3199;49.102;8.856;2022-07-22T12:45:36;34.60;51.20
6333;DHT22;3199;49.102;8.856;2022-07-22T12:51:03;34.70;51.00
6333;DHT22;3199;49.102;8.856;2022-07-22T12:53:28;34.80;50.60
6333;DHT22;3199;49.102;8.856;2022-07-22T12:55:58;34.80;50.30
6333;DHT22;3199;49.102;8.856;2022-07-22T12:58:26;34.70;50.40
6333;DHT22;3199;49.102;8.856;2022-07-22T13:00:57;34.50;50.70
6333;DHT22;3199;49.102;8.856;2022-07-22T13:03:24;34.40;50.60
6333;DHT22;3199;49.102;8.856;2022-07-22T13:05:54;34.30;51.00
6333;DHT22;3199;49.102;8.856;2022-07-22T13:08:21;34.20;51.30
6333;DHT22;3199;49.102;8.856;2022-07-22T13:10:48;34.20;51.10
6333;DHT22;3199;49.102;8.856;2022-07-22T13:13:13;34.10;51.40
6333;DHT22;3199;49.102;8.856;2022-07-22T13:15:39;34.00;51.40
6333;DHT22;3199;49.102;8.856;2022-07-22T13:18:05;33.80;52.20
6333;DHT22;3199;49.102;8.856;2022-07-22T13:20:30;33.60;52.20
6333;DHT22;3199;49.102;8.856;2022-07-22T13:22:56;33.80;52.30
6333;DHT22;3199;49.102;8.856;2022-07-22T13:25:21;33.90;51.80
6333;DHT22;3199;49.102;8.856;2022-07-22T13:27:47;33.70;51.90
6333;DHT22;3199;49.102;8.856;2022-07-22T13:30:13;33.70;52.10
6333;DHT22;3199;49.102;8.856;2022-07-22T13:32:38;33.60;51.70
6333;DHT22;3199;49.102;8.856;2022-07-22T13:35:04;33.50;51.50
6333;DHT22;3199;49.102;8.856;2022-07-22T13:37:30;33.50;51.60
6333;DHT22;3199;49.102;8.856;2022-07-22T13:39:55;33.50;51.80
6333;DHT22;3199;49.102;8.856;2022-07-22T13:42:21;33.60;51.80
6333;DHT22;3199;49.102;8.856;2022-07-22T13:44:47;33.70;51.90
6333;DHT22;3199;49.102;8.856;2022-07-22T13:47:13;33.70;51.50
6333;DHT22;3199;49.102;8.856;2022-07-22T13:49:39;33.70;51.80
6333;DHT22;3199;49.102;8.856;2022-07-22T13:52:05;33.60;51.40
6333;DHT22;3199;49.102;8.856;2022-07-22T13:54:31;33.50;52.00
6333;DHT22;3199;49.102;8.856;2022-07-22T13:56:57;33.50;52.20
6333;DHT22;3199;49.102;8.856;2022-07-22T13:59:23;33.60;51.80
6333;DHT22;3199;49.102;8.856;2022-07-22T14:01:49;33.70;51.80
6333;DHT22;3199;49.102;8.856;2022-07-22T14:04:15;33.70;51.40
6333;DHT22;3199;49.102;8.856;2022-07-22T14:06:41;33.70;51.40
6333;DHT22;3199;49.102;8.856;2022-07-22T14:09:06;33.50;51.40
6333;DHT22;3199;49.102;8.856;2022-07-22T14:11:32;33.20;51.60
6333;DHT22;3199;49.102;8.856;2022-07-22T14:13:57;33.10;52.00
6333;DHT22;3199;49.102;8.856;2022-07-22T14:16:23;33.20;52.70
6333;DHT22;3199;49.102;8.856;2022-07-22T14:19:04;33.10;52.10
6333;DHT22;3199;49.102;8.856;2022-07-22T14:21:30;33.00;52.10
6333;DHT22;3199;49.102;8.856;2022-07-22T14:23:55;33.00;52.40
6333;DHT22;3199;49.102;8.856;2022-07-22T14:26:21;32.90;52.10
6333;DHT22;3199;49.102;8.856;2022-07-22T14:28:47;32.90;52.70
6333;DHT22;3199;49.102;8.856;2022-07-22T14:31:12;32.90;52.40
6333;DHT22;3199;49.102;8.856;2022-07-22T14:33:38;32.90;52.40
6333;DHT22;3199;49.102;8.856;2022-07-22T14:36:03;33.00;52.20
6333;DHT22;3199;49.102;8.856;2022-07-22T14:38:30;33.10;52.10
6333;DHT22;3199;49.102;8.856;2022-07-22T14:40:55;33.10;52.30
6333;DHT22;3199;49.102;8.856;2022-07-22T14:43:21;33.10;51.70
6333;DHT22;3199;49.102;8.856;2022-07-22T14:45:46;32.90;51.60
6333;DHT22;3199;49.102;8.856;2022-07-22T14:48:12;32.90;52.10
6333;DHT22;3199;49.102;8.856;2022-07-22T14:50:37;32.80;51.70
6333;DHT22;3199;49.102;8.856;2022-07-22T14:53:03;32.80;52.20
6333;DHT22;3199;49.102;8.856;2022-07-22T14:55:28;32.60;52.10
6333;DHT22;3199;49.102;8.856;2022-07-22T14:57:54;32.70;52.30
6333;DHT22;3199;49.102;8.856;2022-07-22T15:00:19;32.70;52.40
6333;DHT22;3199;49.102;8.856;2022-07-22T15:02:45;32.60;52.50
6333;DHT22;3199;49.102;8.856;2022-07-22T15:05:11;32.60;52.20
6333;DHT22;3199;49.102;8.856;2022-07-22T15:07:36;32.60;52.20
6333;DHT22;3199;49.102;8.856;2022-07-22T15:10:02;32.60;52.00
6333;DHT22;3199;49.102;8.856;2022-07-22T15:12:28;32.60;52.00
6333;DHT22;3199;49.102;8.856;2022-07-22T15:14:53;32.50;52.10
6333;DHT22;3199;49.102;8.856;2022-07-22T15:17:19;32.50;52.40
6333;DHT22;3199;49.102;8.856;2022-07-22T15:19:44;32.50;52.30
6333;DHT22;3199;49.102;8.856;2022-07-22T15:22:10;32.60;51.80
6333;DHT22;3199;49.102;8.856;2022-07-22T15:24:35;32.60;51.70
6333;DHT22;3199;49.102;8.856;2022-07-22T15:27:01;32.50;51.70
6333;DHT22;3199;49.102;8.856;2022-07-22T15:29:27;32.50;51.70
6333;DHT22;3199;49.102;8.856;2022-07-22T15:31:53;32.50;51.90
6333;DHT22;3199;49.102;8.856;2022-07-22T15:34:18;32.60;52.00
6333;DHT22;3199;49.102;8.856;2022-07-22T15:36:44;32.60;51.80
6333;DHT22;3199;49.102;8.856;2022-07-22T15:39:10;32.60;52.10
6333;DHT22;3199;49.102;8.856;2022-07-22T15:41:36;32.70;52.30
6333;DHT22;3199;49.102;8.856;2022-07-22T15:44:03;32.70;52.20
6333;DHT22;3199;49.102;8.856;2022-07-22T15:46:29;32.70;52.00
6333;DHT22;3199;49.102;8.856;2022-07-22T15:48:54;32.60;52.10
6333;DHT22;3199;49.102;8.856;2022-07-22T15:51:20;32.60;51.80
6333;DHT22;3199;49.102;8.856;2022-07-22T15:53:45;32.50;52.20
6333;DHT22;3199;49.102;8.856;2022-07-22T15:56:11;32.50;52.30
6333;DHT22;3199;49.102;8.856;2022-07-22T15:58:36;32.40;52.40
6333;DHT22;3199;49.102;8.856;2022-07-22T16:01:20;32.30;52.90
6333;DHT22;3199;49.102;8.856;2022-07-22T16:03:46;32.20;53.30
6333;DHT22;3199;49.102;8.856;2022-07-22T16:06:12;32.20;53.30
6333;DHT22;3199;49.102;8.856;2022-07-22T16:08:37;32.20;53.20
6333;DHT22;3199;49.102;8.856;2022-07-22T16:11:03;32.30;52.50
6333;DHT22;3199;49.102;8.856;2022-07-22T16:13:28;32.30;52.40
6333;DHT22;3199;49.102;8.856;2022-07-22T16:15:54;32.30;52.80
6333;DHT22;3199;49.102;8.856;2022-07-22T16:18:20;32.30;53.30
6333;DHT22;3199;49.102;8.856;2022-07-22T16:20:45;32.30;52.60
6333;DHT22;3199;49.102;8.856;2022-07-22T16:23:11;32.40;52.90
6333;DHT22;3199;49.102;8.856;2022-07-22T16:25:36;32.40;53.00